Elkins, WV (26241)

3:18 AM EST on February 12, 2016 (GMT -0500)
KWVELKIN3 | | Change Station
CLOSE
Current Station
Personal Weather Station
Location: Elkins, WV
Elevation: 1972 ft
Nearby Weather Stations

Elev 1972 ft 38.89 °N, 79.85 °W | Updated 0 second ago

Clear
Clear
2.8 °F
Feels Like 3 °F
N
0.0
Wind Variable Wind from West
Gusts 0.0 mph

Today
High -- | Low -- °F
--% Chance of Precip.
Yesterday
High -- | Low -- °F
Precip. -- in
Pressure 30.32 in
Visibility 10.0 miles
Clouds Clear
Windchill 3 °F
Dew Point -0 °F
Humidity 86%
Rainfall 0.00 in
Snow Depth Not available.
7:14 AM 5:52 PM
Waxing Crescent, 18% visible
METAR KEKN 120751Z AUTO 00000KT 10SM CLR M19/M22 A3018 RMK AO2 SLP267 I1000 T11941222 TSNO
Pressure 30.32 in
Visibility 10.0 miles
Clouds Clear
Windchill 3 °F
Dew Point -0 °F
Humidity 86%
Rainfall 0.00 in
Snow Depth Not available.
7:14 AM 5:52 PM
Waxing Crescent, 18% visible
METAR KEKN 120751Z AUTO 00000KT 10SM CLR M19/M22 A3018 RMK AO2 SLP267 I1000 T11941222 TSNO

10-Day Weather Forecast

Almanac

Astronomy

Feb. 12, 2016 Rise Set
Actual Time
Civil Twilight
Nautical Twilight
Astronomical Twilight
Moon
Length of Visible Light
Length of Day
Tomorrow will be .
, % of the Moon is Illuminated

Today's Extremes

State Highs State Lows

Community

WunderPhotos

Upload Photos

1,892,278 photos uploaded!

WunderBlog® & News

Nearby

Air Quality

  Air Quality AQ Index Pollutant
Not available.

Snow Depth

Station Depth Elevation

Earthquake Activity

City Distance Mag. Time & Date
Minimum magnitude displayed is 2.5.

Coastal Water Temperatures

Place Temperature

Stations

Nearby Weather Stations

Station Location Temp. Windchill Dew Point Humidity Wind Precip. Elev Updated Type
                   

Watches & Warnings

There are currently no watches in effect.